Time;durP1;ratioP1;P1;durP2;ratioP2;P2;SDS_P1;SDS_P2;PMS_P1;PMS_P2;Temp;Humidity;BMP_temperature;BMP_pressure;BME280_temperature;BME280_humidity;BME280_pressure;Samples;Min_cycle;Max_cycle;Signal;HPM_P1;HPM_P2
2022/01/06 00:01:23;;;;;;;46.73;27.25;;;;;;;4.54;97.73;97841.95;1756611;81;20965;-68
2022/01/06 00:03:52;;;;;;;59.67;32.03;;;;;;;4.53;97.60;97841.72;1751773;81;20984;-68
2022/01/06 00:06:18;;;;;;;55.85;30.82;;;;;;;4.51;97.65;97852.14;1750066;81;20947;-68
2022/01/06 00:08:47;;;;;;;58.55;31.00;;;;;;;4.52;97.78;97855.09;1752516;81;20898;-68
2022/01/06 00:11:14;;;;;;;52.27;30.77;;;;;;;4.57;98.09;97863.12;1753389;81;21493;-69
2022/01/06 00:24:19;;;;;;;37.90;21.12;;;;;;;4.48;97.34;97878.15;1753803;81;21531;-70
2022/01/06 00:26:48;;;;;;;38.67;21.52;;;;;;;4.37;97.32;97871.38;1756236;81;20936;-69
2022/01/06 00:29:15;;;;;;;39.78;22.07;;;;;;;4.21;97.44;97867.77;1759392;81;21056;-69
2022/01/06 00:31:42;;;;;;;37.50;21.82;;;;;;;4.11;97.70;97863.39;1758032;81;20994;-69
2022/01/06 00:34:14;;;;;;;33.13;20.35;;;;;;;4.03;97.85;97865.55;1759878;81;21003;-69
2022/01/06 00:36:40;;;;;;;37.28;19.77;;;;;;;3.95;98.03;97866.33;1757064;81;21572;-69
2022/01/06 00:39:07;;;;;;;32.33;19.35;;;;;;;3.88;98.35;97873.05;1754315;81;21537;-67
2022/01/06 00:41:36;;;;;;;33.13;19.30;;;;;;;3.80;98.67;97881.19;1758805;81;20941;-67
2022/01/06 00:44:04;;;;;;;33.45;19.10;;;;;;;3.71;98.94;97879.79;1761427;81;20969;-68
2022/01/06 00:46:33;;;;;;;29.67;18.67;;;;;;;3.65;99.19;97884.02;1753173;81;20872;-68
2022/01/06 00:49:00;;;;;;;32.05;17.37;;;;;;;3.61;99.41;97891.22;1761662;81;21452;-68
2022/01/06 00:51:28;;;;;;;30.32;16.42;;;;;;;3.58;99.73;97900.58;1751397;81;21492;-67
2022/01/06 00:53:54;;;;;;;27.85;15.28;;;;;;;3.53;99.94;97894.71;1756516;81;20972;-68
2022/01/06 00:56:21;;;;;;;24.15;13.35;;;;;;;3.57;100.00;97895.67;1761032;81;21044;-67
2022/01/06 00:58:48;;;;;;;20.75;11.50;;;;;;;3.57;100.00;97898.95;1760880;81;21032;-68
2022/01/06 01:01:14;;;;;;;20.62;11.40;;;;;;;3.51;100.00;97901.80;1759720;80;21103;-70
2022/01/06 01:03:41;;;;;;;17.45;10.75;;;;;;;3.52;100.00;97902.62;1752812;81;20939;-68
2022/01/06 01:06:07;;;;;;;17.07;10.20;;;;;;;3.50;100.00;97902.94;1760117;81;20973;-68
2022/01/06 01:08:35;;;;;;;20.85;10.28;;;;;;;3.45;100.00;97901.70;1758433;81;21501;-68
2022/01/06 01:11:01;;;;;;;16.73;10.00;;;;;;;3.39;100.00;97908.41;1752366;81;20992;-70
2022/01/06 01:13:31;;;;;;;16.07;10.10;;;;;;;3.37;100.00;97916.08;1758280;81;21799;-69
2022/01/06 01:16:08;;;;;;;13.48;7.75;;;;;;;3.43;100.00;97920.84;1762666;81;21410;-70
2022/01/06 01:18:29;;;;;;;10.58;5.90;;;;;;;3.42;100.00;97914.59;1754436;81;20995;-68
2022/01/06 01:20:57;;;;;;;11.20;7.28;;;;;;;3.37;100.00;97916.08;1753056;81;20973;-70
2022/01/06 01:23:23;;;;;;;11.53;6.58;;;;;;;3.35;100.00;97912.30;1759125;81;21072;-67
2022/01/06 01:25:50;;;;;;;14.90;7.65;;;;;;;3.38;100.00;97919.03;1757418;81;21495;-69
2022/01/06 01:28:17;;;;;;;9.60;6.17;;;;;;;3.40;100.00;97923.07;1755103;81;20921;-69
2022/01/06 01:31:56;;;;;;;;;;;;;;;;;;;;;
2022/01/06 01:33:21;;;;;;;10.32;5.85;;;;;;;3.48;100.00;97919.36;1760524;80;20970;-68
2022/01/06 01:35:47;;;;;;;8.73;4.50;;;;;;;3.51;100.00;97918.73;1753299;81;20948;-67
2022/01/06 01:38:13;;;;;;;11.05;4.92;;;;;;;3.59;100.00;97912.52;1754842;81;21155;-68
2022/01/06 01:40:40;;;;;;;6.55;4.60;;;;;;;3.64;100.00;97916.47;1750904;81;21540;-70
2022/01/06 01:43:10;;;;;;;6.65;4.42;;;;;;;3.67;100.00;97904.70;1759844;81;20920;-69
2022/01/06 01:45:45;;;;;;;7.47;4.72;;;;;;;3.68;100.00;97896.77;1752539;81;20872;-69
2022/01/06 01:48:09;;;;;;;8.75;5.40;;;;;;;3.74;100.00;97888.69;1751958;80;20975;-68
2022/01/06 01:50:37;;;;;;;10.63;6.03;;;;;;;3.72;100.00;97889.01;1758420;81;21085;-69
2022/01/06 01:53:06;;;;;;;9.03;5.05;;;;;;;3.77;100.00;97894.90;1752098;81;20945;-70
2022/01/06 01:55:34;;;;;;;7.25;5.10;;;;;;;3.85;100.00;97894.67;1700591;84;21100;-69
2022/01/06 01:58:03;;;;;;;7.92;4.42;;;;;;;3.94;100.00;97898.80;1739750;80;20953;-69
2022/01/06 02:00:32;;;;;;;7.92;5.10;;;;;;;4.03;100.00;97906.44;1736838;82;21016;-69
2022/01/06 02:03:06;;;;;;;7.92;5.03;;;;;;;4.05;100.00;97908.29;1736908;82;21121;-69
2022/01/06 02:05:34;;;;;;;7.05;4.87;;;;;;;4.02;100.00;97917.10;1736918;82;20966;-66
2022/01/06 02:08:02;;;;;;;9.15;5.60;;;;;;;4.06;100.00;97913.97;1736805;82;21154;-69
2022/01/06 02:10:30;;;;;;;10.63;5.45;;;;;;;4.12;100.00;97905.91;1736915;82;21060;-70
2022/01/06 02:13:01;;;;;;;10.82;7.05;;;;;;;4.18;100.00;97888.05;1722373;81;20983;-66
2022/01/06 02:15:28;;;;;;;8.58;6.87;;;;;;;4.24;100.00;97884.03;1736921;82;21143;-69
2022/01/06 02:17:55;;;;;;;11.70;7.55;;;;;;;4.32;100.00;97889.25;1736893;82;20857;-66
2022/01/06 02:20:22;;;;;;;8.88;6.75;;;;;;;4.37;100.00;97898.09;1736887;82;20976;-69
2022/01/06 02:22:49;;;;;;;12.78;7.37;;;;;;;4.39;100.00;97914.14;1736920;82;21501;-70
2022/01/06 02:25:23;;;;;;;13.00;7.78;;;;;;;4.38;100.00;97922.88;1736932;82;21032;-68
2022/01/06 02:27:52;;;;;;;12.05;7.50;;;;;;;4.35;100.00;97933.06;1736820;82;21520;-69
2022/01/06 02:30:20;;;;;;;12.95;8.05;;;;;;;4.31;99.78;97938.11;1736828;82;21102;-70
2022/01/06 02:32:47;;;;;;;13.48;7.72;;;;;;;4.25;99.54;97942.89;1737045;82;20973;-69
2022/01/06 02:35:16;;;;;;;13.43;6.80;;;;;;;4.21;99.39;97950.12;1736985;82;21434;-69
2022/01/06 02:37:44;;;;;;;14.18;6.95;;;;;;;4.11;99.11;97953.36;1736903;82;21467;-70
2022/01/06 02:40:14;;;;;;;10.13;6.35;;;;;;;4.04;99.26;97953.03;1736890;82;21531;-69
2022/01/06 02:42:43;;;;;;;8.68;5.45;;;;;;;4.00;99.33;97946.04;1736987;82;21032;-69
2022/01/06 02:45:10;;;;;;;7.95;5.65;;;;;;;3.99;99.43;97958.63;1736816;82;20924;-68
2022/01/06 02:47:40;;;;;;;10.25;5.50;;;;;;;3.98;99.51;97955.08;1736970;82;21048;-69
2022/01/06 02:50:09;;;;;;;9.58;5.30;;;;;;;4.02;99.60;97970.25;1736967;82;20977;-69
2022/01/06 02:52:36;;;;;;;7.25;5.08;;;;;;;4.02;99.53;97970.25;1736934;82;21023;-66
2022/01/06 02:55:05;;;;;;;6.37;4.62;;;;;;;4.01;99.38;97980.34;1736868;82;21477;-70
2022/01/06 02:57:32;;;;;;;8.90;4.80;;;;;;;3.99;99.19;97994.84;1736997;82;20972;-68
2022/01/06 02:59:59;;;;;;;5.70;3.80;;;;;;;3.98;99.21;97991.06;1739871;81;22452;-70
2022/01/06 03:02:26;;;;;;;8.40;5.03;;;;;;;4.00;99.35;98000.55;1737595;81;20995;-70
2022/01/06 03:04:53;;;;;;;6.92;3.85;;;;;;;4.02;99.37;98004.33;1737047;82;21044;-68
2022/01/06 03:07:20;;;;;;;5.20;4.05;;;;;;;4.04;99.09;98008.10;1738579;82;21095;-67
2022/01/06 03:09:53;;;;;;;6.00;3.90;;;;;;;3.99;98.60;98014.50;1737084;82;20933;-69
2022/01/06 03:12:27;;;;;;;5.10;3.77;;;;;;;3.95;98.76;98002.60;1736612;82;20985;-68
2022/01/06 03:14:47;;;;;;;7.33;3.40;;;;;;;3.97;98.79;98004.46;1735568;82;21480;-68
2022/01/06 03:17:14;;;;;;;4.33;3.05;;;;;;;3.99;98.88;97996.20;1737206;82;21137;-68
2022/01/06 03:19:41;;;;;;;4.90;3.70;;;;;;;4.01;98.82;98002.70;1736894;82;20986;-68
2022/01/06 03:22:09;;;;;;;4.65;3.50;;;;;;;4.04;98.62;98013.00;1736841;82;20897;-69
2022/01/06 03:24:39;;;;;;;6.85;3.92;;;;;;;4.06;98.51;98013.47;1737050;82;21580;-68
2022/01/06 03:27:07;;;;;;;5.92;3.50;;;;;;;4.08;98.39;98018.61;1737035;82;21040;-68
2022/01/06 03:29:34;;;;;;;8.25;4.70;;;;;;;4.09;98.26;98011.50;1737027;82;21530;-68
2022/01/06 03:32:02;;;;;;;5.65;4.37;;;;;;;4.11;98.08;98001.06;1736863;82;20956;-67
2022/01/06 03:34:32;;;;;;;6.90;3.22;;;;;;;4.11;98.05;97996.98;1736950;82;21569;-68
2022/01/06 03:37:00;;;;;;;5.40;3.12;;;;;;;4.11;98.07;97986.08;1736970;82;20981;-68
2022/01/06 03:39:30;;;;;;;4.83;3.17;;;;;;;4.14;97.90;97993.62;1737126;82;21418;-68
2022/01/06 03:41:56;;;;;;;6.87;3.33;;;;;;;4.12;97.72;97997.24;1740542;81;21934;-67
2022/01/06 03:44:24;;;;;;;6.72;3.67;;;;;;;4.12;97.85;97995.87;1736984;82;21123;-66
2022/01/06 03:46:55;;;;;;;6.42;3.80;;;;;;;4.14;97.84;97996.34;1740764;81;21056;-67
2022/01/06 03:49:22;;;;;;;6.00;3.47;;;;;;;4.17;97.77;98000.93;1737001;82;21145;-68
2022/01/06 03:51:49;;;;;;;4.33;3.02;;;;;;;4.18;97.67;98005.28;1737077;82;20949;-68
2022/01/06 03:54:16;;;;;;;4.75;3.42;;;;;;;4.19;97.52;98006.33;1736938;82;20985;-66
2022/01/06 03:56:43;;;;;;;4.03;2.80;;;;;;;4.19;97.46;98013.14;1737006;82;21028;-68
2022/01/06 03:59:10;;;;;;;8.48;4.25;;;;;;;4.18;97.53;98003.34;1736956;82;21548;-67
2022/01/06 04:01:41;;;;;;;6.53;4.83;;;;;;;4.21;97.42;98016.92;1736924;82;21202;-67
2022/01/06 04:04:13;;;;;;;6.35;4.53;;;;;;;4.21;97.21;98016.38;1737061;82;21052;-69
2022/01/06 04:06:44;;;;;;;6.70;4.58;;;;;;;4.22;97.17;98012.52;1716329;82;21506;-69
2022/01/06 04:09:13;;;;;;;5.72;4.42;;;;;;;4.24;97.07;98019.02;1737102;82;20980;-68
2022/01/06 04:11:41;;;;;;;8.30;4.30;;;;;;;4.22;96.83;98012.52;1737093;82;21516;-69
2022/01/06 04:14:07;;;;;;;6.25;4.50;;;;;;;4.22;96.72;98008.97;1737111;82;21403;-68
2022/01/06 04:16:38;;;;;;;3.77;3.35;;;;;;;4.21;96.69;98015.01;1737009;82;20909;-67
2022/01/06 04:19:04;;;;;;;8.95;4.67;;;;;;;4.22;96.37;98022.61;1737015;82;22090;-69
2022/01/06 04:21:31;;;;;;;6.60;4.05;;;;;;;4.19;96.13;98032.78;1736512;81;21718;-67
2022/01/06 04:23:59;;;;;;;6.33;4.80;;;;;;;4.14;96.04;98034.52;1736889;82;20889;-66
2022/01/06 04:26:26;;;;;;;6.42;4.17;;;;;;;4.08;95.96;98039.87;1737063;82;20977;-68
2022/01/06 04:28:52;;;;;;;7.15;4.75;;;;;;;4.02;95.96;98039.77;1736994;82;20921;-70
2022/01/06 04:31:21;;;;;;;6.90;5.20;;;;;;;3.97;96.04;98031.17;1736969;82;21067;-68
2022/01/06 04:33:50;;;;;;;6.35;5.00;;;;;;;3.94;96.08;98032.34;1737073;82;21504;-69
2022/01/06 04:36:17;;;;;;;6.00;4.53;;;;;;;3.92;96.26;98033.21;1736990;82;21004;-67
2022/01/06 04:38:43;;;;;;;6.72;4.67;;;;;;;3.91;96.31;98050.69;1737052;82;20956;-69
2022/01/06 04:41:12;;;;;;;7.53;5.95;;;;;;;3.88;96.24;98039.29;1736981;82;21000;-69
2022/01/06 04:43:38;;;;;;;7.97;5.60;;;;;;;3.89;96.46;98041.44;1738579;82;21052;-67
2022/01/06 04:46:07;;;;;;;7.60;5.47;;;;;;;3.92;96.54;98045.48;1736731;81;21639;-69
2022/01/06 04:48:35;;;;;;;6.28;4.92;;;;;;;3.94;96.53;98031.77;1737109;82;21434;-69
2022/01/06 04:51:02;;;;;;;9.75;6.20;;;;;;;3.98;96.51;98042.86;1737052;82;20993;-69
2022/01/06 04:53:28;;;;;;;10.95;6.78;;;;;;;3.99;96.44;98044.48;1737027;82;20981;-69
2022/01/06 04:55:57;;;;;;;9.38;6.20;;;;;;;3.97;96.20;98050.25;1737093;82;21150;-70
2022/01/06 04:58:23;;;;;;;8.53;6.08;;;;;;;3.98;96.25;98039.58;1736909;82;21024;-70
2022/01/06 05:00:49;;;;;;;10.28;6.10;;;;;;;4.01;96.30;98048.49;1718727;81;21075;-69
2022/01/06 05:03:18;;;;;;;7.85;5.90;;;;;;;4.04;96.22;98044.91;1736874;82;20981;-69
2022/01/06 05:05:44;;;;;;;9.00;6.78;;;;;;;4.04;96.10;98045.72;1736930;82;21112;-69
2022/01/06 05:08:10;;;;;;;10.13;6.28;;;;;;;4.06;96.06;98052.22;1737106;82;21693;-70
2022/01/06 05:10:36;;;;;;;10.30;6.65;;;;;;;4.09;95.98;98059.22;1740485;81;21572;-69
2022/01/06 05:13:03;;;;;;;9.35;7.05;;;;;;;4.09;95.72;98059.22;1737205;82;20985;-70
2022/01/06 05:15:29;;;;;;;9.83;7.37;;;;;;;4.09;95.32;98074.76;1736881;82;21001;-68
2022/01/06 05:17:56;;;;;;;14.60;7.67;;;;;;;4.03;95.11;98075.44;1737040;82;21020;-70
2022/01/06 05:20:25;;;;;;;12.18;7.90;;;;;;;3.99;94.98;98081.28;1736982;82;21606;-70
2022/01/06 05:22:51;;;;;;;12.23;7.95;;;;;;;3.95;94.97;98078.92;1736821;82;20933;-67
2022/01/06 05:25:21;;;;;;;12.05;7.95;;;;;;;3.95;94.97;98083.00;1737025;82;20981;-69
2022/01/06 05:27:46;;;;;;;11.63;7.97;;;;;;;3.94;95.00;98090.37;1736770;82;20941;-69
2022/01/06 05:30:13;;;;;;;15.00;8.35;;;;;;;3.93;94.90;98094.77;1736958;82;20985;-70
2022/01/06 05:32:39;;;;;;;15.60;8.90;;;;;;;3.94;95.10;98097.77;1736899;82;21507;-70
2022/01/06 05:35:06;;;;;;;14.93;8.50;;;;;;;3.95;95.02;98093.36;1736930;82;21037;-69
2022/01/06 05:37:36;;;;;;;11.30;7.58;;;;;;;3.96;95.02;98090.87;1736895;82;21015;-70
2022/01/06 05:40:05;;;;;;;12.05;8.00;;;;;;;3.97;94.69;98099.86;1736839;82;20921;-67
2022/01/06 05:42:31;;;;;;;13.20;8.50;;;;;;;3.95;94.55;98093.91;1736893;82;21500;-69
2022/01/06 05:44:58;;;;;;;12.65;7.45;;;;;;;3.95;94.47;98101.53;1736832;82;21772;-68
2022/01/06 05:47:26;;;;;;;12.05;7.87;;;;;;;3.96;94.29;98103.71;1736917;82;20900;-67
2022/01/06 05:49:53;;;;;;;13.78;8.78;;;;;;;3.98;94.27;98116.45;1737114;82;20989;-68
2022/01/06 05:52:19;;;;;;;15.70;9.25;;;;;;;3.95;93.79;98119.25;1740502;81;20980;-69
2022/01/06 05:54:51;;;;;;;15.05;8.88;;;;;;;3.92;93.77;98123.16;1736974;82;20979;-69
2022/01/06 05:57:19;;;;;;;21.52;8.78;;;;;;;3.93;93.82;98131.56;1736788;82;21134;-71
2022/01/06 05:59:47;;;;;;;16.67;9.55;;;;;;;3.96;93.73;98140.51;1737855;82;21015;-70
2022/01/06 06:02:14;;;;;;;16.73;8.90;;;;;;;3.98;93.56;98140.98;1736966;82;20961;-70
2022/01/06 06:04:42;;;;;;;13.43;8.45;;;;;;;3.99;93.41;98146.70;1736908;82;21469;-71
2022/01/06 06:07:09;;;;;;;11.97;8.48;;;;;;;3.97;93.24;98153.83;1737043;82;20991;-69
2022/01/06 06:09:36;;;;;;;12.07;8.18;;;;;;;3.96;93.10;98152.78;1736963;82;21130;-70
2022/01/06 06:12:06;;;;;;;13.55;8.40;;;;;;;3.97;93.05;98165.28;1736838;82;20869;-70
2022/01/06 06:14:33;;;;;;;13.53;9.35;;;;;;;3.94;92.91;98155.78;1736757;82;20981;-70
2022/01/06 06:17:01;;;;;;;14.35;9.78;;;;;;;3.93;92.88;98165.63;1736979;82;21020;-68
2022/01/06 06:19:30;;;;;;;14.93;8.53;;;;;;;3.92;92.84;98170.84;1736967;82;21032;-69
2022/01/06 06:21:57;;;;;;;15.63;8.75;;;;;;;3.90;92.86;98175.25;1715120;81;21515;-70
2022/01/06 06:24:23;;;;;;;12.47;7.83;;;;;;;3.91;92.94;98169.25;1736756;82;21068;-68
2022/01/06 06:26:53;;;;;;;11.03;7.55;;;;;;;3.95;92.85;98175.67;1736820;82;21009;-70
2022/01/06 06:29:19;;;;;;;12.85;8.45;;;;;;;3.95;92.68;98174.31;1736933;82;21009;-69
2022/01/06 06:31:47;;;;;;;13.00;7.53;;;;;;;3.96;92.58;98175.37;1736845;82;20933;-67
2022/01/06 06:34:14;;;;;;;12.43;8.20;;;;;;;3.96;92.37;98181.39;1736878;82;21607;-70
2022/01/06 06:36:41;;;;;;;13.35;8.70;;;;;;;3.94;91.85;98191.22;1737046;82;21545;-70
2022/01/06 06:39:09;;;;;;;13.53;8.63;;;;;;;3.92;91.93;98189.92;1737001;82;20989;-68
2022/01/06 06:41:36;;;;;;;14.28;9.38;;;;;;;3.91;91.93;98193.78;1737077;82;20992;-69
2022/01/06 06:44:05;;;;;;;13.18;8.53;;;;;;;3.91;91.69;98192.41;1737094;82;21141;-70
2022/01/06 06:46:36;;;;;;;16.90;8.53;;;;;;;3.89;91.69;98190.78;1736995;82;22978;-69
2022/01/06 06:49:03;;;;;;;13.03;9.25;;;;;;;3.91;91.75;98197.28;1737100;82;20871;-71
2022/01/06 06:51:29;;;;;;;13.30;8.30;;;;;;;3.92;91.73;98196.19;1737132;82;20995;-71
2022/01/06 06:53:58;;;;;;;12.98;8.90;;;;;;;3.95;91.65;98201.57;1737157;82;21020;-70
2022/01/06 06:56:31;;;;;;;14.58;8.33;;;;;;;3.96;91.45;98202.63;1737136;82;21000;-70
2022/01/06 06:58:57;;;;;;;10.75;7.12;;;;;;;3.97;91.36;98207.53;1737462;82;21517;-70
2022/01/06 07:01:23;;;;;;;12.28;6.97;;;;;;;3.98;91.11;98218.66;1737056;82;21032;-70
2022/01/06 07:03:54;;;;;;;9.70;6.92;;;;;;;3.97;90.98;98217.88;1737159;82;21540;-68
2022/01/06 07:06:22;;;;;;;11.78;7.70;;;;;;;3.95;90.81;98224.73;1737092;82;21473;-69
2022/01/06 07:08:48;;;;;;;12.55;8.13;;;;;;;3.89;90.57;98223.49;1718054;81;21432;-71
2022/01/06 07:11:24;;;;;;;14.28;8.05;;;;;;;3.87;90.73;98224.92;1737068;82;20913;-69
2022/01/06 07:13:51;;;;;;;15.10;6.90;;;;;;;3.86;90.61;98227.38;1740708;81;20992;-67
2022/01/06 07:16:22;;;;;;;9.30;6.17;;;;;;;3.86;90.30;98226.83;1737268;82;21044;-69
2022/01/06 07:18:49;;;;;;;10.03;6.05;;;;;;;3.86;90.06;98245.09;1736913;81;20960;-70
2022/01/06 07:21:15;;;;;;;13.15;7.03;;;;;;;3.85;89.84;98238.86;1736932;82;21047;-68
2022/01/06 07:23:46;;;;;;;13.32;6.75;;;;;;;3.85;89.57;98238.86;1737005;82;20846;-70
2022/01/06 07:26:13;;;;;;;15.45;7.05;;;;;;;3.84;89.43;98229.63;1737117;81;20976;-69
2022/01/06 07:28:41;;;;;;;14.35;6.58;;;;;;;3.79;88.80;98226.44;1736996;82;20952;-68
2022/01/06 07:31:08;;;;;;;14.23;6.22;;;;;;;3.73;88.79;98224.95;1737146;82;20889;-69
2022/01/06 07:33:34;;;;;;;11.25;5.40;;;;;;;3.70;88.61;98226.35;1737178;82;20949;-70
2022/01/06 07:36:01;;;;;;;11.80;5.60;;;;;;;3.65;87.79;98227.28;1737061;82;21685;-69
2022/01/06 07:38:31;;;;;;;10.93;4.85;;;;;;;3.58;87.90;98239.71;1737120;82;21457;-68
2022/01/06 07:40:58;;;;;;;10.23;5.40;;;;;;;3.48;86.32;98236.65;1736790;82;20893;-69
2022/01/06 07:43:25;;;;;;;7.05;4.25;;;;;;;3.35;86.46;98251.33;1737025;82;21091;-70
2022/01/06 07:45:51;;;;;;;5.87;3.62;;;;;;;3.29;86.33;98245.16;1737046;82;21137;-69
2022/01/06 07:48:37;;;;;;;10.80;4.22;;;;;;;3.24;85.78;98245.84;1737161;82;21083;-70
2022/01/06 07:50:56;;;;;;;11.33;4.25;;;;;;;3.21;85.31;98258.13;1739681;81;21454;-67
2022/01/06 07:53:22;;;;;;;11.73;3.67;;;;;;;3.19;84.93;98266.35;1742495;81;21460;-67
2022/01/06 07:55:53;;;;;;;8.03;3.22;;;;;;;3.11;83.07;98256.95;1737131;81;20999;-70
2022/01/06 07:58:24;;;;;;;6.05;2.67;;;;;;;3.02;83.27;98266.39;1737068;82;20977;-70
2022/01/06 08:00:54;;;;;;;7.92;2.98;;;;;;;2.94;83.39;98267.05;1737105;82;21465;-69
2022/01/06 08:03:22;;;;;;;12.10;3.75;;;;;;;2.86;82.75;98263.13;1736916;82;21028;-70
2022/01/06 08:05:53;;;;;;;10.80;3.92;;;;;;;2.82;82.45;98269.72;1736937;82;20936;-69
2022/01/06 08:08:19;;;;;;;7.97;3.40;;;;;;;2.75;82.69;98269.28;1736618;82;20978;-69
2022/01/06 08:10:45;;;;;;;9.10;4.75;;;;;;;2.73;82.28;98278.32;1736980;82;21465;-69
2022/01/06 08:13:12;;;;;;;10.03;4.75;;;;;;;2.74;82.70;98278.56;1737015;82;21012;-69
2022/01/06 08:15:45;;;;;;;10.25;3.65;;;;;;;2.78;82.70;98278.23;1714178;82;20983;-71
2022/01/06 08:18:12;;;;;;;9.23;4.15;;;;;;;2.83;82.56;98282.23;1736790;81;21008;-70
2022/01/06 08:20:40;;;;;;;9.60;3.45;;;;;;;2.83;82.16;98283.59;1736941;82;20984;-70
2022/01/06 08:23:06;;;;;;;9.53;3.25;;;;;;;2.75;80.70;98280.98;1736965;82;20973;-70
2022/01/06 08:25:35;;;;;;;7.65;3.98;;;;;;;2.67;80.78;98278.41;1736893;82;21133;-70
2022/01/06 08:28:02;;;;;;;6.03;3.55;;;;;;;2.64;80.83;98276.29;1736996;82;20878;-71
2022/01/06 08:30:31;;;;;;;5.15;2.17;;;;;;;2.64;80.69;98286.35;1737094;82;21020;-70
2022/01/06 08:32:59;;;;;;;8.35;4.00;;;;;;;2.64;80.62;98291.79;1736912;82;21037;-71
2022/01/06 08:35:25;;;;;;;9.95;4.22;;;;;;;2.65;80.30;98302.37;1736999;82;20949;-70
2022/01/06 08:37:53;;;;;;;9.25;4.10;;;;;;;2.59;80.32;98314.45;1736939;82;21121;-69
2022/01/06 08:40:20;;;;;;;11.88;3.92;;;;;;;2.54;80.57;98309.87;1736968;82;21092;-70
2022/01/06 08:42:46;;;;;;;11.35;3.83;;;;;;;2.53;80.33;98318.33;1737115;82;21027;-70
2022/01/06 08:45:16;;;;;;;10.75;4.10;;;;;;;2.50;80.42;98325.73;1736646;82;21099;-69
2022/01/06 08:47:44;;;;;;;10.95;4.62;;;;;;;2.42;80.73;98326.64;1737068;82;21470;-69
2022/01/06 08:50:11;;;;;;;12.20;5.37;;;;;;;2.42;81.25;98332.66;1736956;82;21088;-70
2022/01/06 08:52:38;;;;;;;13.80;5.17;;;;;;;2.47;81.16;98323.61;1736905;82;20829;-67
2022/01/06 08:55:06;;;;;;;11.83;5.65;;;;;;;2.50;81.30;98323.01;1737118;82;21057;-70
2022/01/06 08:57:32;;;;;;;10.35;5.28;;;;;;;2.52;81.47;98318.09;1736883;82;21028;-69
2022/01/06 09:00:01;;;;;;;14.45;4.50;;;;;;;2.55;80.92;98324.29;1737005;82;20861;-70
2022/01/06 09:02:28;;;;;;;10.93;5.35;;;;;;;2.53;80.99;98327.85;1736675;82;21009;-71
2022/01/06 09:04:56;;;;;;;9.80;4.35;;;;;;;2.53;81.08;98333.30;1736994;82;20925;-70
2022/01/06 09:07:26;;;;;;;10.70;5.17;;;;;;;2.55;80.63;98331.09;1736983;82;21052;-70
2022/01/06 09:09:53;;;;;;;11.88;4.78;;;;;;;2.57;80.38;98336.23;1736974;82;21494;-70
2022/01/06 09:12:20;;;;;;;7.95;4.33;;;;;;;2.57;80.36;98342.48;1737120;82;21032;-68
2022/01/06 09:14:47;;;;;;;10.68;4.33;;;;;;;2.56;80.13;98349.02;1737064;82;21100;-71
2022/01/06 09:17:16;;;;;;;11.70;4.58;;;;;;;2.59;79.83;98340.83;1736916;82;21383;-70
2022/01/06 09:19:48;;;;;;;11.10;3.83;;;;;;;2.57;79.06;98352.01;1737051;82;20972;-70
2022/01/06 09:22:17;;;;;;;14.33;4.47;;;;;;;2.51;78.77;98343.11;1736851;82;21457;-70
2022/01/06 09:24:48;;;;;;;12.47;4.97;;;;;;;2.50;78.60;98346.94;1737070;82;21131;-68
2022/01/06 09:27:15;;;;;;;15.32;5.60;;;;;;;2.47;78.66;98352.97;1737039;82;21788;-70
2022/01/06 09:29:42;;;;;;;11.40;4.28;;;;;;;2.42;78.41;98352.47;1736881;82;20881;-67
2022/01/06 09:32:08;;;;;;;9.85;4.35;;;;;;;2.40;78.41;98347.09;1737048;82;20929;-68
2022/01/06 09:34:36;;;;;;;12.58;4.25;;;;;;;2.41;78.08;98354.95;1736847;82;21466;-71
2022/01/06 09:37:03;;;;;;;9.68;4.08;;;;;;;2.40;77.88;98351.98;1736856;82;21202;-68
2022/01/06 09:39:30;;;;;;;11.25;4.78;;;;;;;2.37;77.36;98357.98;1737019;82;21954;-69
2022/01/06 09:41:58;;;;;;;14.53;5.37;;;;;;;2.37;77.56;98353.13;1736809;82;20937;-68
2022/01/06 09:44:25;;;;;;;10.98;3.80;;;;;;;2.35;77.83;98339.00;1737116;82;20937;-71
2022/01/06 09:46:54;;;;;;;11.38;4.70;;;;;;;2.35;77.72;98349.88;1736913;82;20977;-68
2022/01/06 09:49:24;;;;;;;11.20;4.05;;;;;;;2.35;77.73;98357.49;1738646;82;21030;-68
2022/01/06 09:51:52;;;;;;;11.30;4.55;;;;;;;2.37;77.00;98372.16;1737042;82;21045;-67
2022/01/06 09:54:19;;;;;;;8.58;3.95;;;;;;;2.37;77.32;98375.66;1737133;82;21036;-70
2022/01/06 09:56:47;;;;;;;8.58;4.40;;;;;;;2.39;77.15;98368.59;1737126;82;20933;-68
2022/01/06 09:59:13;;;;;;;7.05;4.03;;;;;;;2.39;77.34;98351.70;1739051;81;20892;-71
2022/01/06 10:01:44;;;;;;;11.25;4.83;;;;;;;2.43;77.41;98354.11;1738818;81;21004;-70
2022/01/06 10:04:27;;;;;;;9.03;4.72;;;;;;;2.48;77.48;98353.77;1737064;82;21445;-69
2022/01/06 10:07:03;;;;;;;8.60;4.53;;;;;;;2.57;77.33;98355.27;1736765;81;20918;-71
2022/01/06 10:09:33;;;;;;;8.43;4.47;;;;;;;2.63;77.35;98356.25;1736865;82;21027;-70
2022/01/06 10:12:00;;;;;;;5.95;3.85;;;;;;;2.69;76.94;98366.52;1736962;82;21111;-70
2022/01/06 10:14:49;;;;;;;9.98;4.53;;;;;;;2.70;76.37;98362.69;1736856;81;21060;-72
2022/01/06 10:17:32;;;;;;;7.72;4.50;;;;;;;2.72;75.97;98350.95;1736375;82;21210;-72
2022/01/06 10:20:18;;;;;;;13.83;5.03;;;;;;;2.76;76.03;98344.38;1736769;81;20938;-71
2022/01/06 10:22:48;;;;;;;15.65;4.50;;;;;;;2.78;75.55;98352.48;1736936;82;21055;-71
2022/01/06 10:25:20;;;;;;;9.13;4.53;;;;;;;2.80;75.70;98348.11;1737085;81;21498;-71
2022/01/06 10:27:49;;;;;;;9.53;4.58;;;;;;;2.86;75.64;98344.22;1743045;81;20874;-71
2022/01/06 10:30:16;;;;;;;14.25;5.55;;;;;;;2.92;75.57;98351.17;1737125;80;21117;-70
2022/01/06 10:32:42;;;;;;;9.50;4.53;;;;;;;2.97;75.64;98335.88;1736772;82;21517;-70
2022/01/06 10:35:11;;;;;;;8.55;4.15;;;;;;;3.04;75.24;98338.46;1717615;81;21079;-68
2022/01/06 10:37:44;;;;;;;9.95;3.90;;;;;;;3.09;74.87;98340.85;1737007;82;21040;-72
2022/01/06 10:40:16;;;;;;;8.50;4.30;;;;;;;3.07;74.68;98326.16;1737326;82;21015;-72
2022/01/06 10:42:46;;;;;;;15.75;4.33;;;;;;;3.07;73.98;98325.37;1737048;82;21132;-71
2022/01/06 10:45:19;;;;;;;9.45;4.15;;;;;;;2.98;73.63;98332.05;1738350;82;21063;-69
2022/01/06 10:47:50;;;;;;;9.50;4.72;;;;;;;3.12;74.20;98326.06;1736923;82;20953;-68
2022/01/06 10:50:28;;;;;;;10.82;4.45;;;;;;;3.37;74.01;98322.64;1737053;82;20940;-69
2022/01/06 10:53:04;;;;;;;9.50;4.03;;;;;;;3.60;72.95;98319.22;1740998;80;21025;-69
2022/01/06 10:55:37;;;;;;;9.43;3.67;;;;;;;3.68;73.01;98336.77;1741902;80;21001;-67
2022/01/06 10:58:11;;;;;;;10.15;3.47;;;;;;;3.70;72.20;98333.19;1749484;80;21206;-70
2022/01/06 11:00:48;;;;;;;5.70;2.77;;;;;;;3.64;70.87;98343.38;1749498;80;20988;-68
2022/01/06 11:03:23;;;;;;;7.65;3.15;;;;;;;3.51;69.80;98339.55;1748321;80;21522;-70
2022/01/06 11:05:58;;;;;;;6.80;3.60;;;;;;;3.33;69.59;98337.13;1750038;81;21021;-67
2022/01/06 11:08:31;;;;;;;10.93;3.65;;;;;;;3.28;70.00;98335.32;1722666;80;21691;-67
2022/01/06 11:13:41;;;;;;;8.23;3.50;;;;;;;3.26;69.88;98351.96;1748163;81;21044;-71
2022/01/06 11:16:14;;;;;;;8.15;3.55;;;;;;;3.23;69.91;98349.02;1753509;80;21033;-69
2022/01/06 11:18:45;;;;;;;10.50;4.10;;;;;;;3.18;69.89;98355.37;1687344;83;21054;-69
2022/01/06 11:21:14;;;;;;;8.75;4.83;;;;;;;3.11;69.92;98351.68;1747072;81;21019;-70
2022/01/06 11:23:44;;;;;;;9.68;3.70;;;;;;;3.06;70.22;98353.67;1733461;80;21056;-69
2022/01/06 11:26:17;;;;;;;8.50;3.85;;;;;;;3.02;70.45;98350.77;1734059;80;21127;-68
2022/01/06 11:28:58;;;;;;;9.58;3.80;;;;;;;3.00;70.45;98340.72;1744033;80;21070;-67
2022/01/06 11:31:29;;;;;;;9.88;3.40;;;;;;;2.97;70.44;98350.84;1747246;81;20950;-69
2022/01/06 11:33:56;;;;;;;10.75;4.50;;;;;;;2.93;70.73;98360.16;1741239;81;21926;-70
2022/01/06 11:36:31;;;;;;;9.98;4.03;;;;;;;2.90;70.80;98366.98;1771800;80;21128;-69
2022/01/06 11:39:06;;;;;;;9.53;3.83;;;;;;;2.89;71.03;98373.55;1756296;80;20995;-71
2022/01/06 11:41:38;;;;;;;6.45;3.90;;;;;;;2.86;71.25;98370.06;1741964;81;20993;-72
2022/01/06 11:44:26;;;;;;;11.95;4.42;;;;;;;2.83;71.69;98370.66;1735787;81;21111;-70
2022/01/06 11:46:56;;;;;;;10.53;5.10;;;;;;;2.82;72.27;98370.39;1740026;81;21431;-65
2022/01/06 11:49:41;;;;;;;11.85;4.97;;;;;;;2.78;72.28;98369.38;1735702;80;21048;-68
2022/01/06 11:52:14;;;;;;;10.40;5.28;;;;;;;2.75;71.88;98371.31;1757097;81;21052;-71
2022/01/06 11:54:54;;;;;;;12.90;5.57;;;;;;;2.70;71.90;98357.78;1749149;80;21528;-70
2022/01/06 11:57:33;;;;;;;9.83;5.45;;;;;;;2.68;72.25;98372.50;1746267;81;21512;-70